createdAt,value
2023-01-07T00:00:52.059Z,22.85
2023-01-07T00:03:38.611Z,18.70
2023-01-07T00:06:26.765Z,18.02
2023-01-07T00:09:16.487Z,26.25
2023-01-07T00:12:02.775Z,24.60
2023-01-07T00:14:48.536Z,27.55
2023-01-07T00:17:34.465Z,31.05
2023-01-07T00:20:20.155Z,33.75
2023-01-07T00:23:05.866Z,25.08
2023-01-07T00:25:52.777Z,26.20
2023-01-07T00:28:40.821Z,27.20
2023-01-07T00:31:32.282Z,21.00
2023-01-07T00:34:23.557Z,24.88
2023-01-07T00:37:29.340Z,32.45
2023-01-07T00:40:15.198Z,21.65
2023-01-07T00:43:02.326Z,27.35
2023-01-07T00:45:48.292Z,28.00
2023-01-07T00:48:34.021Z,27.70
2023-01-07T00:51:20.108Z,26.85
2023-01-07T00:54:06.462Z,29.35
2023-01-07T00:56:52.574Z,29.90
2023-01-07T00:59:38.905Z,22.58
2023-01-07T01:02:24.534Z,21.77
2023-01-07T01:05:12.203Z,26.10
2023-01-07T01:07:58.177Z,20.25
2023-01-07T01:10:45.093Z,23.40
2023-01-07T01:13:30.950Z,28.02
2023-01-07T01:16:18.107Z,29.52
2023-01-07T01:19:03.973Z,23.13
2023-01-07T01:21:49.604Z,24.10
2023-01-07T01:24:35.148Z,23.58
2023-01-07T01:27:20.845Z,21.92
2023-01-07T01:30:07.748Z,17.15
2023-01-07T01:32:57.071Z,20.83
2023-01-07T01:35:43.918Z,25.40
2023-01-07T01:38:30.277Z,14.95
2023-01-07T01:41:19.060Z,22.95
2023-01-07T01:44:40.024Z,21.13
2023-01-07T01:47:47.638Z,19.70
2023-01-07T01:50:39.874Z,22.50
2023-01-07T01:53:29.487Z,27.02
2023-01-07T01:56:19.236Z,22.58
2023-01-07T01:59:08.237Z,19.83
2023-01-07T02:01:57.199Z,20.10
2023-01-07T02:04:43.294Z,14.15
2023-01-07T02:07:30.642Z,17.52
2023-01-07T02:10:22.508Z,24.45
2023-01-07T02:13:25.735Z,19.38
2023-01-07T02:16:22.705Z,16.73
2023-01-07T02:20:00.232Z,17.60
2023-01-07T02:22:47.125Z,16.88
2023-01-07T02:25:49.001Z,15.63
2023-01-07T02:29:11.391Z,12.88
2023-01-07T02:32:16.632Z,13.60
2023-01-07T02:35:19.777Z,18.77
2023-01-07T02:38:09.514Z,16.02
2023-01-07T02:41:38.388Z,15.93
2023-01-07T02:45:01.212Z,16.52
2023-01-07T02:47:54.260Z,14.63
2023-01-07T02:50:40.445Z,19.55
2023-01-07T02:53:26.207Z,18.65
2023-01-07T02:56:29.042Z,15.45
2023-01-07T02:59:27.845Z,18.75
2023-01-07T03:02:27.786Z,13.98
2023-01-07T03:06:01.479Z,15.15
2023-01-07T03:09:09.041Z,19.42
2023-01-07T03:12:22.022Z,20.70
2023-01-07T03:15:15.297Z,17.58
2023-01-07T03:18:20.650Z,21.50
2023-01-07T03:21:10.381Z,26.60
2023-01-07T03:23:57.424Z,32.25
2023-01-07T03:26:48.817Z,31.55
2023-01-07T03:29:38.469Z,29.50
2023-01-07T03:32:55.003Z,31.95
2023-01-07T03:35:43.393Z,27.15
2023-01-07T03:38:29.797Z,33.80
2023-01-07T03:41:37.291Z,34.75
2023-01-07T03:44:23.207Z,45.72
2023-01-07T03:47:10.106Z,42.70
2023-01-07T03:49:56.028Z,43.28
2023-01-07T03:52:42.457Z,42.33
2023-01-07T03:55:28.333Z,34.20
2023-01-07T03:58:15.593Z,34.85
2023-01-07T04:01:01.404Z,31.67
2023-01-07T04:03:47.631Z,35.42
2023-01-07T04:06:33.858Z,31.83
2023-01-07T04:09:21.587Z,32.92
2023-01-07T04:12:07.696Z,23.90
2023-01-07T04:14:53.973Z,23.80
2023-01-07T04:17:40.113Z,19.25
2023-01-07T04:20:28.044Z,15.60
2023-01-07T04:23:15.060Z,19.70
2023-01-07T04:26:03.806Z,22.17
2023-01-07T04:28:49.664Z,20.85
2023-01-07T04:31:36.023Z,22.42
2023-01-07T04:34:21.823Z,19.58
2023-01-07T04:37:07.614Z,23.30
2023-01-07T04:39:53.871Z,21.50
2023-01-07T04:42:39.808Z,17.73
2023-01-07T04:45:27.515Z,24.65
2023-01-07T04:48:13.945Z,16.17
2023-01-07T04:51:00.149Z,20.23
2023-01-07T04:53:47.239Z,20.67
2023-01-07T04:56:33.387Z,26.17
2023-01-07T04:59:20.112Z,30.00
2023-01-07T05:02:06.891Z,26.38
2023-01-07T05:04:52.888Z,22.90
2023-01-07T05:07:40.343Z,26.83
2023-01-07T05:10:27.817Z,21.40
2023-01-07T05:13:18.993Z,20.20
2023-01-07T05:16:07.910Z,17.75
2023-01-07T05:18:54.004Z,24.15
2023-01-07T05:21:39.668Z,24.55
2023-01-07T05:24:26.438Z,35.53
2023-01-07T05:27:12.221Z,28.90
2023-01-07T05:29:59.708Z,29.63
2023-01-07T05:32:45.408Z,37.60
2023-01-07T05:35:34.328Z,27.63
2023-01-07T05:38:20.832Z,32.53
2023-01-07T05:41:08.509Z,28.48
2023-01-07T05:43:55.317Z,32.60
2023-01-07T05:46:40.997Z,39.10
2023-01-07T05:49:26.720Z,41.45
2023-01-07T05:52:12.262Z,36.67
2023-01-07T05:54:58.062Z,40.40
2023-01-07T05:57:43.758Z,31.50
2023-01-07T06:00:29.563Z,34.13
2023-01-07T06:03:15.324Z,57.20
2023-01-07T06:06:07.176Z,38.97
2023-01-07T06:08:53.320Z,56.78
2023-01-07T06:11:38.964Z,32.40
2023-01-07T06:14:24.595Z,39.58
2023-01-07T06:17:10.320Z,38.33
2023-01-07T06:19:56.005Z,30.88
2023-01-07T06:22:44.601Z,37.60
2023-01-07T06:25:30.458Z,35.63
2023-01-07T06:28:16.257Z,35.38
2023-01-07T06:31:01.916Z,26.70
2023-01-07T06:33:47.776Z,30.40
2023-01-07T06:36:33.508Z,50.80
2023-01-07T06:39:19.283Z,85.03
2023-01-07T06:42:05.381Z,64.50
2023-01-07T06:44:51.227Z,55.35
2023-01-07T06:47:37.243Z,43.13
2023-01-07T06:50:23.356Z,63.38
2023-01-07T06:53:08.848Z,179.00
2023-01-07T06:55:54.754Z,185.75
2023-01-07T06:58:40.635Z,70.13
2023-01-07T07:01:26.501Z,60.95
2023-01-07T07:04:12.496Z,83.63
2023-01-07T07:06:58.463Z,70.72
2023-01-07T07:09:44.418Z,60.33
2023-01-07T07:12:30.405Z,70.85
2023-01-07T07:15:21.404Z,62.92
2023-01-07T07:18:07.529Z,82.43
2023-01-07T07:21:11.135Z,68.93
2023-01-07T07:23:56.776Z,62.35
2023-01-07T07:26:42.476Z,44.72
2023-01-07T07:29:28.099Z,44.25
2023-01-07T07:32:20.693Z,37.15
2023-01-07T07:35:07.296Z,40.27
2023-01-07T07:37:55.457Z,51.55
2023-01-07T07:40:41.324Z,68.13
2023-01-07T07:43:36.386Z,58.70
2023-01-07T07:46:22.227Z,55.50
2023-01-07T07:49:07.817Z,56.58
2023-01-07T07:51:53.659Z,49.67
2023-01-07T07:54:39.407Z,53.35
2023-01-07T07:57:25.158Z,54.80
2023-01-07T08:00:11.674Z,47.80
2023-01-07T08:03:00.239Z,57.97
2023-01-07T08:05:46.194Z,73.53
2023-01-07T08:08:32.281Z,67.38
2023-01-07T08:11:18.232Z,63.38
2023-01-07T08:14:04.060Z,68.63
2023-01-07T08:16:49.771Z,59.05
2023-01-07T08:19:35.650Z,62.85
2023-01-07T08:22:21.570Z,56.78
2023-01-07T08:25:07.904Z,72.85
2023-01-07T08:27:55.948Z,77.03
2023-01-07T08:30:42.881Z,89.30
2023-01-07T08:33:29.216Z,106.60
2023-01-07T08:36:22.727Z,104.10
2023-01-07T08:39:09.251Z,63.55
2023-01-07T08:41:55.151Z,70.35
2023-01-07T08:44:41.545Z,80.05
2023-01-07T08:47:28.075Z,78.40
2023-01-07T08:50:14.053Z,76.15
2023-01-07T08:53:00.047Z,76.50
2023-01-07T08:55:46.401Z,76.75
2023-01-07T08:58:32.156Z,89.35
2023-01-07T09:01:18.008Z,100.22
2023-01-07T09:04:04.083Z,96.22
2023-01-07T09:06:49.786Z,82.38
2023-01-07T09:09:36.709Z,66.85
2023-01-07T09:12:22.419Z,80.05
2023-01-07T09:15:09.202Z,75.95
2023-01-07T09:17:55.221Z,95.78
2023-01-07T09:20:41.378Z,72.55
2023-01-07T09:23:27.025Z,69.00
2023-01-07T09:26:12.671Z,78.38
2023-01-07T09:28:58.422Z,75.55
2023-01-07T09:31:44.031Z,63.15
2023-01-07T09:34:29.816Z,61.80
2023-01-07T09:37:15.779Z,49.08
2023-01-07T09:40:01.993Z,56.22
2023-01-07T09:42:58.070Z,54.08
2023-01-07T09:45:50.313Z,50.03
2023-01-07T09:48:40.864Z,67.32
2023-01-07T09:51:31.115Z,49.47
2023-01-07T09:54:28.476Z,54.42
2023-01-07T09:57:17.020Z,44.10
2023-01-07T10:00:03.810Z,50.65
2023-01-07T10:03:11.322Z,46.53
2023-01-07T10:06:41.935Z,51.97
2023-01-07T10:09:47.295Z,53.15
2023-01-07T10:12:49.065Z,47.85
2023-01-07T10:15:40.334Z,47.85
2023-01-07T10:18:26.172Z,42.08
2023-01-07T10:21:16.905Z,45.53
2023-01-07T10:24:05.325Z,42.55
2023-01-07T10:26:54.635Z,48.58
2023-01-07T10:29:45.191Z,43.92
2023-01-07T10:32:33.467Z,46.60
2023-01-07T10:35:21.446Z,41.83
2023-01-07T10:38:12.075Z,40.75
2023-01-07T10:41:02.039Z,34.15
2023-01-07T10:44:04.622Z,39.63
2023-01-07T10:47:21.641Z,108.80
2023-01-07T10:50:39.292Z,45.83
2023-01-07T10:53:58.007Z,38.08
2023-01-07T10:56:48.229Z,34.53
2023-01-07T10:59:34.512Z,29.80
2023-01-07T11:02:28.001Z,36.08
2023-01-07T11:08:01.846Z,40.13
2023-01-07T11:10:52.233Z,33.58
2023-01-07T11:13:39.454Z,37.65
2023-01-07T11:16:29.373Z,36.85
2023-01-07T11:19:16.705Z,38.50
2023-01-07T11:22:02.522Z,40.70
2023-01-07T11:24:48.226Z,46.42
2023-01-07T11:27:34.520Z,55.83
2023-01-07T11:30:25.602Z,41.85
2023-01-07T11:34:01.978Z,45.35
2023-01-07T11:36:42.465Z,37.03
2023-01-07T11:39:30.874Z,39.40
2023-01-07T11:42:39.734Z,35.95
2023-01-07T11:46:19.907Z,37.08
2023-01-07T11:49:03.426Z,43.60
2023-01-07T11:51:55.131Z,42.58
2023-01-07T11:54:40.845Z,29.67
2023-01-07T11:57:27.291Z,28.60
2023-01-07T12:00:17.506Z,26.80
2023-01-07T12:03:10.964Z,35.75
2023-01-07T12:09:03.129Z,22.48
2023-01-07T12:11:50.172Z,29.23
2023-01-07T12:14:38.702Z,28.40
2023-01-07T12:17:28.398Z,29.63
2023-01-07T12:20:35.800Z,31.83
2023-01-07T12:23:53.538Z,28.25
2023-01-07T12:27:03.808Z,27.55
2023-01-07T12:30:15.136Z,28.77
2023-01-07T12:33:29.555Z,29.08
2023-01-07T12:39:05.422Z,23.83
2023-01-07T12:41:59.474Z,70.15
2023-01-07T12:44:50.044Z,28.38
2023-01-07T12:47:48.563Z,26.05
2023-01-07T12:50:55.294Z,53.50
2023-01-07T12:53:53.586Z,69.53
2023-01-07T12:56:53.487Z,50.13
2023-01-07T13:00:01.569Z,50.40
2023-01-07T13:03:00.119Z,41.20
2023-01-07T13:05:57.157Z,43.67
2023-01-07T13:08:47.631Z,51.95
2023-01-07T13:12:41.449Z,61.97
2023-01-07T13:15:28.240Z,51.92
2023-01-07T13:18:16.813Z,55.55
2023-01-07T13:21:11.499Z,60.80
2023-01-07T13:24:09.614Z,56.28
2023-01-07T13:27:05.324Z,61.53
2023-01-07T13:30:20.664Z,59.38
2023-01-07T13:33:48.475Z,60.20
2023-01-07T13:36:42.416Z,60.97
2023-01-07T13:39:34.631Z,57.45
2023-01-07T13:42:37.419Z,72.22
2023-01-07T13:45:25.056Z,63.38
2023-01-07T13:48:23.056Z,59.00
2023-01-07T13:51:10.314Z,57.15
2023-01-07T13:53:56.122Z,48.47
2023-01-07T13:56:42.507Z,52.42
2023-01-07T13:59:30.034Z,51.80
2023-01-07T14:02:19.620Z,53.58
2023-01-07T14:05:05.488Z,55.63
2023-01-07T14:07:53.312Z,58.65
2023-01-07T14:10:39.311Z,54.05
2023-01-07T14:13:36.187Z,52.17
2023-01-07T14:16:28.684Z,50.67
2023-01-07T14:19:32.046Z,50.97
2023-01-07T14:22:52.257Z,48.22
2023-01-07T14:26:03.753Z,50.60
2023-01-07T14:29:23.926Z,56.83
2023-01-07T14:32:14.170Z,54.65
2023-01-07T14:35:22.781Z,52.95
2023-01-07T14:38:30.353Z,52.42
2023-01-07T14:41:17.556Z,48.75
2023-01-07T14:44:26.681Z,64.22
2023-01-07T14:47:14.310Z,62.90
2023-01-07T14:50:28.715Z,59.33
2023-01-07T14:53:33.683Z,68.60
2023-01-07T14:56:32.476Z,73.82
2023-01-07T14:59:24.528Z,73.45
2023-01-07T15:02:37.545Z,70.32
2023-01-07T15:05:29.399Z,100.22
2023-01-07T15:08:38.268Z,103.50
2023-01-07T15:11:44.328Z,107.63
2023-01-07T15:14:54.466Z,75.88
2023-01-07T15:17:41.011Z,81.18
2023-01-07T15:20:38.004Z,69.72
2023-01-07T15:23:43.309Z,74.72
2023-01-07T15:26:36.223Z,76.20
2023-01-07T15:29:37.536Z,77.25
2023-01-07T15:32:40.062Z,102.45
2023-01-07T15:35:37.758Z,93.25
2023-01-07T15:38:29.650Z,97.40
2023-01-07T15:41:39.507Z,98.97
2023-01-07T15:44:38.270Z,88.65
2023-01-07T15:47:42.349Z,105.95
2023-01-07T15:50:35.001Z,87.32
2023-01-07T15:53:23.075Z,146.82
2023-01-07T15:56:13.944Z,148.77
2023-01-07T15:58:59.542Z,129.02
2023-01-07T16:01:48.035Z,113.18
2023-01-07T16:04:37.124Z,98.35
2023-01-07T16:07:26.007Z,110.70
2023-01-07T16:10:30.081Z,114.28
2023-01-07T16:13:18.781Z,105.80
2023-01-07T16:16:06.648Z,86.78
2023-01-07T16:18:59.954Z,61.17
2023-01-07T16:21:54.951Z,65.85
2023-01-07T16:24:46.926Z,71.57
2023-01-07T16:27:33.022Z,62.58
2023-01-07T16:30:19.030Z,80.15
2023-01-07T16:33:05.896Z,70.45
2023-01-07T16:35:55.789Z,66.72
2023-01-07T16:38:42.155Z,74.22
2023-01-07T16:41:29.558Z,70.50
2023-01-07T16:44:46.541Z,66.03
2023-01-07T16:47:34.213Z,71.07
2023-01-07T16:50:20.218Z,68.30
2023-01-07T16:53:22.547Z,59.20
2023-01-07T16:56:18.320Z,42.75
2023-01-07T16:59:04.317Z,57.08
2023-01-07T17:01:50.353Z,50.42
2023-01-07T17:04:36.422Z,44.88
2023-01-07T17:07:25.263Z,49.15
2023-01-07T17:10:27.847Z,125.97
2023-01-07T17:13:13.453Z,237.85
2023-01-07T17:16:15.739Z,166.63
2023-01-07T17:19:24.782Z,212.43
2023-01-07T17:22:35.062Z,442.77
2023-01-07T17:25:24.638Z,165.40
2023-01-07T17:28:19.214Z,121.95
2023-01-07T17:31:07.076Z,120.32
2023-01-07T17:33:54.443Z,77.78
2023-01-07T17:36:40.388Z,76.32
2023-01-07T17:39:26.146Z,72.70
2023-01-07T17:42:45.898Z,81.70
2023-01-07T17:45:32.543Z,90.15
2023-01-07T17:48:18.523Z,84.10
2023-01-07T17:51:07.203Z,84.80
2023-01-07T17:53:55.834Z,67.63
2023-01-07T17:56:41.695Z,95.00
2023-01-07T17:59:28.994Z,94.63
2023-01-07T18:02:17.664Z,91.65
2023-01-07T18:05:03.894Z,106.70
2023-01-07T18:07:51.063Z,102.57
2023-01-07T18:10:55.320Z,80.22
2023-01-07T18:13:41.889Z,79.93
2023-01-07T18:16:28.143Z,75.45
2023-01-07T18:19:15.300Z,71.35
2023-01-07T18:22:01.162Z,64.20
2023-01-07T18:24:50.314Z,63.58
2023-01-07T18:27:36.266Z,68.82
2023-01-07T18:30:23.290Z,79.18
2023-01-07T18:33:13.473Z,75.38
2023-01-07T18:36:00.713Z,74.40
2023-01-07T18:38:46.712Z,74.32
2023-01-07T18:41:33.820Z,73.43
2023-01-07T18:44:21.416Z,81.45
2023-01-07T18:47:07.814Z,88.55
2023-01-07T18:49:54.303Z,84.72
2023-01-07T18:52:41.266Z,78.40
2023-01-07T18:55:27.627Z,80.97
2023-01-07T18:58:15.142Z,74.32
2023-01-07T19:01:05.382Z,79.55
2023-01-07T19:03:51.776Z,77.55
2023-01-07T19:06:38.040Z,91.40
2023-01-07T19:09:23.919Z,73.10
2023-01-07T19:12:11.410Z,78.85
2023-01-07T19:14:57.544Z,71.03
2023-01-07T19:17:43.342Z,71.03
2023-01-07T19:20:29.060Z,77.22
2023-01-07T19:23:14.940Z,78.40
2023-01-07T19:26:02.868Z,70.95
2023-01-07T19:28:49.017Z,75.25
2023-01-07T19:31:36.262Z,70.97
2023-01-07T19:34:22.510Z,78.15
2023-01-07T19:37:08.358Z,84.88
2023-01-07T19:39:54.231Z,82.35
2023-01-07T19:42:39.963Z,76.88
2023-01-07T19:45:25.735Z,81.55
2023-01-07T19:48:11.558Z,78.70
2023-01-07T19:50:59.314Z,72.18
2023-01-07T19:53:47.891Z,74.18
2023-01-07T19:56:34.619Z,63.83
2023-01-07T19:59:20.183Z,68.88
2023-01-07T20:02:05.981Z,75.50
2023-01-07T20:04:52.226Z,83.90
2023-01-07T20:07:37.920Z,73.50
2023-01-07T20:10:23.679Z,81.38
2023-01-07T20:13:09.682Z,83.57
2023-01-07T20:15:55.818Z,77.70
2023-01-07T20:18:46.489Z,67.97
2023-01-07T20:21:33.057Z,79.78
2023-01-07T20:24:19.196Z,75.03
2023-01-07T20:27:05.437Z,71.18
2023-01-07T20:29:51.230Z,66.15
2023-01-07T20:32:37.124Z,61.28
2023-01-07T20:35:24.558Z,63.83
2023-01-07T20:38:11.512Z,68.97
2023-01-07T20:40:57.181Z,70.80
2023-01-07T20:43:43.580Z,63.25
2023-01-07T20:46:30.299Z,70.72
2023-01-07T20:49:16.177Z,64.82
2023-01-07T20:52:02.111Z,60.33
2023-01-07T20:54:47.858Z,64.88
2023-01-07T20:57:34.144Z,61.85
2023-01-07T21:00:20.291Z,73.40
2023-01-07T21:03:06.477Z,68.03
2023-01-07T21:05:56.618Z,73.40
2023-01-07T21:08:42.413Z,71.55
2023-01-07T21:11:28.167Z,76.45
2023-01-07T21:14:14.243Z,71.20
2023-01-07T21:17:00.115Z,77.10
2023-01-07T21:19:46.185Z,78.80
2023-01-07T21:22:32.060Z,64.05
2023-01-07T21:25:18.185Z,53.33
2023-01-07T21:28:05.450Z,61.50
2023-01-07T21:30:53.801Z,76.03
2023-01-07T21:33:40.266Z,72.47
2023-01-07T21:36:26.861Z,70.88
2023-01-07T21:39:13.401Z,59.58
2023-01-07T21:42:00.003Z,66.13
2023-01-07T21:44:45.696Z,69.57
2023-01-07T21:47:31.968Z,71.70
2023-01-07T21:50:17.785Z,65.38
2023-01-07T21:53:03.673Z,70.72
2023-01-07T21:55:49.940Z,66.78
2023-01-07T21:58:36.651Z,56.88
2023-01-07T22:01:28.330Z,54.30
2023-01-07T22:04:14.747Z,67.32
2023-01-07T22:07:00.986Z,60.13
2023-01-07T22:09:46.912Z,72.10
2023-01-07T22:12:33.109Z,75.03
2023-01-07T22:15:19.831Z,57.72
2023-01-07T22:18:05.983Z,58.22
2023-01-07T22:20:55.848Z,58.88
2023-01-07T22:23:45.831Z,59.17
2023-01-07T22:26:32.038Z,62.70
2023-01-07T22:29:18.670Z,56.10
2023-01-07T22:32:05.081Z,54.42
2023-01-07T22:34:51.071Z,55.13
2023-01-07T22:37:37.132Z,56.67
2023-01-07T22:40:23.081Z,53.08
2023-01-07T22:43:12.768Z,58.85
2023-01-07T22:46:04.040Z,58.88
2023-01-07T22:48:50.468Z,57.08
2023-01-07T22:51:39.666Z,51.42
2023-01-07T22:54:25.777Z,58.03
2023-01-07T22:57:12.329Z,52.30
2023-01-07T22:59:59.156Z,58.35
2023-01-07T23:02:45.122Z,57.38
2023-01-07T23:05:30.962Z,51.88
2023-01-07T23:08:17.533Z,59.40
2023-01-07T23:11:04.336Z,69.78
2023-01-07T23:13:49.970Z,62.03
2023-01-07T23:16:36.731Z,47.88
2023-01-07T23:19:22.982Z,57.35
2023-01-07T23:22:08.847Z,56.75
2023-01-07T23:24:54.723Z,55.92
2023-01-07T23:27:40.400Z,56.25
2023-01-07T23:30:26.288Z,55.90
2023-01-07T23:33:12.299Z,57.17
2023-01-07T23:36:08.712Z,68.70
2023-01-07T23:38:54.819Z,57.70
2023-01-07T23:41:40.997Z,58.17
2023-01-07T23:44:27.538Z,61.38
2023-01-07T23:47:13.227Z,54.85
2023-01-07T23:49:59.042Z,62.25
2023-01-07T23:52:45.230Z,52.78
2023-01-07T23:55:30.842Z,50.95
2023-01-07T23:58:16.470Z,52.67
